Terminal Aerodrome Forecast
Issued by NWS

Home | Current Version | Previous Version | Text Only | Print | Product List | Glossary Off
Versions: 1 2 3 4 5 6 7 8 9 10 11 12 13 14 15 16 17 18 19 20 21 22 23 24 25 26 27 28 29 30 31 32 33 34 35

000
FTUS43 KLOT 250600 AAA
TAFDPA
TAF AMD
KDPA 250616Z 2506/2606 16007KT 6SM BR BKN020
     FM250900 17006KT 5SM BR BCFG SCT020
     FM251400 20008KT P6SM FEW025 BKN250
     FM251700 20010KT P6SM SCT035 BKN250 PROB30 2523/2602 5SM TSRA
      BKN040CB
     FM260200 19005KT P6SM FEW020 BKN250=

USA.gov is the U.S. government's official web portal to all federal, state and local government web resources and services.